sensor_id;sensor_type;location;lat;lon;timestamp;pressure;altitude;pressure_sealevel;temperature;humidity
71043;BME280;58696;52.134;5.500;2022-12-18T00:01:22;103017.41;;;-4.26;92.07
71043;BME280;58696;52.134;5.500;2022-12-18T00:03:50;103013.34;;;-4.31;92.01
71043;BME280;58696;52.134;5.500;2022-12-18T00:06:18;103013.34;;;-4.31;91.80
71043;BME280;58696;52.134;5.500;2022-12-18T00:08:47;103014.13;;;-4.28;92.27
71043;BME280;58696;52.134;5.500;2022-12-18T00:11:18;103012.41;;;-4.26;92.06
71043;BME280;58696;52.134;5.500;2022-12-18T00:13:49;102998.97;;;-4.25;91.90
71043;BME280;58696;52.134;5.500;2022-12-18T00:16:18;102999.03;;;-4.26;92.02
71043;BME280;58696;52.134;5.500;2022-12-18T00:18:50;102999.88;;;-4.27;91.72
71043;BME280;58696;52.134;5.500;2022-12-18T00:21:20;102988.13;;;-4.25;92.03
71043;BME280;58696;52.134;5.500;2022-12-18T00:23:48;102998.19;;;-4.27;91.67
71043;BME280;58696;52.134;5.500;2022-12-18T00:26:20;102994.97;;;-4.32;91.74
71043;BME280;58696;52.134;5.500;2022-12-18T00:28:48;102997.59;;;-4.38;92.15
71043;BME280;58696;52.134;5.500;2022-12-18T00:31:18;102989.28;;;-4.40;91.94
71043;BME280;58696;52.134;5.500;2022-12-18T00:33:46;102996.00;;;-4.40;92.30
71043;BME280;58696;52.134;5.500;2022-12-18T00:36:16;102987.69;;;-4.44;92.06
71043;BME280;58696;52.134;5.500;2022-12-18T00:38:43;102996.09;;;-4.46;92.19
71043;BME280;58696;52.134;5.500;2022-12-18T00:41:12;102992.75;;;-4.45;91.85
71043;BME280;58696;52.134;5.500;2022-12-18T00:43:39;102997.69;;;-4.42;92.01
71043;BME280;58696;52.134;5.500;2022-12-18T00:46:07;102992.69;;;-4.42;91.79
71043;BME280;58696;52.134;5.500;2022-12-18T00:48:35;102993.53;;;-4.43;91.87
71043;BME280;58696;52.134;5.500;2022-12-18T00:51:02;103003.56;;;-4.43;92.09
71043;BME280;58696;52.134;5.500;2022-12-18T00:53:33;103001.88;;;-4.43;92.13
71043;BME280;58696;52.134;5.500;2022-12-18T00:56:00;103000.28;;;-4.45;92.11
71043;BME280;58696;52.134;5.500;2022-12-18T00:58:30;103002.88;;;-4.50;91.90
71043;BME280;58696;52.134;5.500;2022-12-18T01:00:57;103001.25;;;-4.53;91.85
71043;BME280;58696;52.134;5.500;2022-12-18T01:03:23;102991.28;;;-4.56;92.30
71043;BME280;58696;52.134;5.500;2022-12-18T01:05:52;102985.41;;;-4.55;92.05
71043;BME280;58696;52.134;5.500;2022-12-18T01:08:21;102992.16;;;-4.58;92.29
71043;BME280;58696;52.134;5.500;2022-12-18T01:10:48;102983.78;;;-4.57;92.19
71043;BME280;58696;52.134;5.500;2022-12-18T01:13:15;102978.75;;;-4.57;92.45
71043;BME280;58696;52.134;5.500;2022-12-18T01:15:51;102977.88;;;-4.55;92.01
71043;BME280;58696;52.134;5.500;2022-12-18T01:18:18;102983.69;;;-4.53;92.23
71043;BME280;58696;52.134;5.500;2022-12-18T01:20:46;102979.44;;;-4.49;92.09
71043;BME280;58696;52.134;5.500;2022-12-18T01:23:12;102983.59;;;-4.48;92.06
71043;BME280;58696;52.134;5.500;2022-12-18T01:25:39;102988.69;;;-4.51;92.27
71043;BME280;58696;52.134;5.500;2022-12-18T01:28:07;102996.25;;;-4.54;92.19
71043;BME280;58696;52.134;5.500;2022-12-18T01:30:35;103007.94;;;-4.53;92.14
71043;BME280;58696;52.134;5.500;2022-12-18T01:33:04;103006.25;;;-4.51;92.29
71043;BME280;58696;52.134;5.500;2022-12-18T01:35:31;103003.69;;;-4.50;92.33
71043;BME280;58696;52.134;5.500;2022-12-18T01:37:58;103006.31;;;-4.54;91.95
71043;BME280;58696;52.134;5.500;2022-12-18T01:40:25;103007.31;;;-4.63;92.13
71043;BME280;58696;52.134;5.500;2022-12-18T01:42:53;103010.78;;;-4.70;92.18
71043;BME280;58696;52.134;5.500;2022-12-18T01:47:55;103001.88;;;-4.83;91.86
71043;BME280;58696;52.134;5.500;2022-12-18T01:50:32;103016.13;;;-4.87;92.25
71043;BME280;58696;52.134;5.500;2022-12-18T01:53:06;103007.81;;;-4.90;92.02
71043;BME280;58696;52.134;5.500;2022-12-18T01:55:40;103009.59;;;-4.94;92.18
71043;BME280;58696;52.134;5.500;2022-12-18T01:58:08;103013.78;;;-4.96;92.18
71043;BME280;58696;52.134;5.500;2022-12-18T02:00:35;103012.22;;;-5.00;91.97
71043;BME280;58696;52.134;5.500;2022-12-18T02:03:02;103013.94;;;-5.04;91.95
71043;BME280;58696;52.134;5.500;2022-12-18T02:08:16;103025.84;;;-5.15;92.21
71043;BME280;58696;52.134;5.500;2022-12-18T02:11:06;103016.78;;;-5.22;91.96
71043;BME280;58696;52.134;5.500;2022-12-18T02:16:42;103011.88;;;-5.30;91.86
71043;BME280;58696;52.134;5.500;2022-12-18T02:23:06;103017.03;;;-5.37;91.92
71043;BME280;58696;52.134;5.500;2022-12-18T02:28:40;103028.06;;;-5.49;91.63
71043;BME280;58696;52.134;5.500;2022-12-18T02:31:11;103024.81;;;-5.56;91.75
71043;BME280;58696;52.134;5.500;2022-12-18T02:33:41;103031.50;;;-5.56;91.76
71043;BME280;58696;52.134;5.500;2022-12-18T02:36:13;103022.38;;;-5.60;91.79
71043;BME280;58696;52.134;5.500;2022-12-18T02:38:41;103014.88;;;-5.60;91.68
71043;BME280;58696;52.134;5.500;2022-12-18T02:41:10;103019.03;;;-5.61;91.54
71043;BME280;58696;52.134;5.500;2022-12-18T02:43:36;103009.09;;;-5.64;91.37
71043;BME280;58696;52.134;5.500;2022-12-18T02:49:20;103009.09;;;-5.64;91.70
71043;BME280;58696;52.134;5.500;2022-12-18T02:51:55;102996.59;;;-5.67;91.75
71043;BME280;58696;52.134;5.500;2022-12-18T02:57:01;102992.59;;;-5.77;91.56
71043;BME280;58696;52.134;5.500;2022-12-18T02:59:44;103001.84;;;-5.80;91.30
71043;BME280;58696;52.134;5.500;2022-12-18T03:02:25;102995.22;;;-5.85;91.24
71043;BME280;58696;52.134;5.500;2022-12-18T03:07:35;102981.03;;;-5.84;91.62
71043;BME280;58696;52.134;5.500;2022-12-18T03:10:06;102983.56;;;-5.86;91.10
71043;BME280;58696;52.134;5.500;2022-12-18T03:12:45;102984.41;;;-5.87;91.30
71043;BME280;58696;52.134;5.500;2022-12-18T03:15:21;102983.63;;;-5.90;91.09
71043;BME280;58696;52.134;5.500;2022-12-18T03:17:56;102981.19;;;-5.93;91.23
71043;BME280;58696;52.134;5.500;2022-12-18T03:20:25;102980.38;;;-5.95;91.04
71043;BME280;58696;52.134;5.500;2022-12-18T03:23:02;102982.09;;;-5.97;91.16
71043;BME280;58696;52.134;5.500;2022-12-18T03:25:30;102973.75;;;-5.99;90.89
71043;BME280;58696;52.134;5.500;2022-12-18T03:28:00;102983.78;;;-5.99;91.15
71043;BME280;58696;52.134;5.500;2022-12-18T03:30:29;102976.28;;;-6.01;90.87
71043;BME280;58696;52.134;5.500;2022-12-18T03:33:12;102964.56;;;-5.97;91.02
71043;BME280;58696;52.134;5.500;2022-12-18T03:35:43;102957.97;;;-6.01;90.80
71043;BME280;58696;52.134;5.500;2022-12-18T03:38:12;102963.88;;;-6.07;90.92
71043;BME280;58696;52.134;5.500;2022-12-18T03:41:23;102956.44;;;-6.12;90.81
71043;BME280;58696;52.134;5.500;2022-12-18T03:46:45;102947.31;;;-6.14;90.74
71043;BME280;58696;52.134;5.500;2022-12-18T03:49:23;102939.88;;;-6.19;90.69
71043;BME280;58696;52.134;5.500;2022-12-18T03:52:06;102948.22;;;-6.20;90.57
71043;BME280;58696;52.134;5.500;2022-12-18T03:54:36;102947.47;;;-6.25;90.81
71043;BME280;58696;52.134;5.500;2022-12-18T03:57:11;102943.28;;;-6.26;90.72
71043;BME280;58696;52.134;5.500;2022-12-18T03:59:41;102945.00;;;-6.28;90.45
71043;BME280;58696;52.134;5.500;2022-12-18T04:02:12;102945.03;;;-6.29;90.75
71043;BME280;58696;52.134;5.500;2022-12-18T04:04:42;102941.72;;;-6.33;90.88
71043;BME280;58696;52.134;5.500;2022-12-18T04:07:09;102943.38;;;-6.30;90.83
71043;BME280;58696;52.134;5.500;2022-12-18T04:09:38;102936.69;;;-6.31;90.75
71043;BME280;58696;52.134;5.500;2022-12-18T04:12:08;102938.47;;;-6.40;90.81
71043;BME280;58696;52.134;5.500;2022-12-18T04:14:34;102946.91;;;-6.45;90.72
71043;BME280;58696;52.134;5.500;2022-12-18T04:17:04;102938.56;;;-6.47;90.44
71043;BME280;58696;52.134;5.500;2022-12-18T04:19:31;102921.97;;;-6.53;90.63
71043;BME280;58696;52.134;5.500;2022-12-18T04:21:58;102924.53;;;-6.56;90.56
71043;BME280;58696;52.134;5.500;2022-12-18T04:24:28;102917.06;;;-6.59;90.42
71043;BME280;58696;52.134;5.500;2022-12-18T04:26:59;102918.69;;;-6.58;90.39
71043;BME280;58696;52.134;5.500;2022-12-18T04:29:29;102920.38;;;-6.58;90.68
71043;BME280;58696;52.134;5.500;2022-12-18T04:31:56;102909.47;;;-6.53;90.57
71043;BME280;58696;52.134;5.500;2022-12-18T04:34:23;102919.44;;;-6.50;90.31
71043;BME280;58696;52.134;5.500;2022-12-18T04:36:50;102918.66;;;-6.53;90.54
71043;BME280;58696;52.134;5.500;2022-12-18T04:39:17;102917.81;;;-6.52;90.54
71043;BME280;58696;52.134;5.500;2022-12-18T04:41:44;102910.28;;;-6.51;90.52
71043;BME280;58696;52.134;5.500;2022-12-18T04:44:13;102911.16;;;-6.52;90.76
71043;BME280;58696;52.134;5.500;2022-12-18T04:46:40;102921.97;;;-6.51;90.43
71043;BME280;58696;52.134;5.500;2022-12-18T04:49:07;102931.91;;;-6.48;90.51
71043;BME280;58696;52.134;5.500;2022-12-18T04:51:34;102932.75;;;-6.46;90.45
71043;BME280;58696;52.134;5.500;2022-12-18T04:54:00;102940.25;;;-6.48;90.35
71043;BME280;58696;52.134;5.500;2022-12-18T04:56:27;102937.75;;;-6.46;90.51
71043;BME280;58696;52.134;5.500;2022-12-18T04:58:54;102940.28;;;-6.49;90.66
71043;BME280;58696;52.134;5.500;2022-12-18T05:01:24;102945.28;;;-6.49;90.68
71043;BME280;58696;52.134;5.500;2022-12-18T05:04:00;102948.59;;;-6.49;90.47
71043;BME280;58696;52.134;5.500;2022-12-18T05:06:27;102961.94;;;-6.47;90.72
71043;BME280;58696;52.134;5.500;2022-12-18T05:08:56;102967.75;;;-6.48;90.50
71043;BME280;58696;52.134;5.500;2022-12-18T05:11:23;102959.47;;;-6.51;90.54
71043;BME280;58696;52.134;5.500;2022-12-18T05:13:51;102969.50;;;-6.54;90.43
71043;BME280;58696;52.134;5.500;2022-12-18T05:16:21;102972.06;;;-6.59;90.53
71043;BME280;58696;52.134;5.500;2022-12-18T05:18:51;102971.28;;;-6.63;90.15
71043;BME280;58696;52.134;5.500;2022-12-18T05:21:19;102970.53;;;-6.69;90.32
71043;BME280;58696;52.134;5.500;2022-12-18T05:23:48;102979.75;;;-6.73;90.08
71043;BME280;58696;52.134;5.500;2022-12-18T05:26:19;102974.00;;;-6.81;89.93
71043;BME280;58696;52.134;5.500;2022-12-18T05:28:46;102979.88;;;-6.83;90.27
71043;BME280;58696;52.134;5.500;2022-12-18T05:31:15;102984.03;;;-6.84;89.97
71043;BME280;58696;52.134;5.500;2022-12-18T05:33:44;103000.72;;;-6.86;90.20
71043;BME280;58696;52.134;5.500;2022-12-18T05:36:11;102992.38;;;-6.85;90.06
71043;BME280;58696;52.134;5.500;2022-12-18T05:38:39;102996.50;;;-6.82;90.05
71043;BME280;58696;52.134;5.500;2022-12-18T05:41:07;102987.34;;;-6.82;90.27
71043;BME280;58696;52.134;5.500;2022-12-18T05:43:39;102984.00;;;-6.81;90.19
71043;BME280;58696;52.134;5.500;2022-12-18T05:46:09;102975.63;;;-6.80;89.96
71043;BME280;58696;52.134;5.500;2022-12-18T05:48:38;102968.13;;;-6.80;90.06
71043;BME280;58696;52.134;5.500;2022-12-18T05:51:12;102965.63;;;-6.80;89.81
71043;BME280;58696;52.134;5.500;2022-12-18T05:53:39;102967.31;;;-6.80;90.02
71043;BME280;58696;52.134;5.500;2022-12-18T05:56:12;102962.31;;;-6.80;90.06
71043;BME280;58696;52.134;5.500;2022-12-18T05:58:39;102956.50;;;-6.79;90.12
71043;BME280;58696;52.134;5.500;2022-12-18T06:01:13;102954.81;;;-6.79;89.85
71043;BME280;58696;52.134;5.500;2022-12-18T06:03:40;102941.53;;;-6.82;89.89
71043;BME280;58696;52.134;5.500;2022-12-18T06:06:26;102946.53;;;-6.82;90.05
71043;BME280;58696;52.134;5.500;2022-12-18T06:08:54;102943.16;;;-6.81;89.85
71043;BME280;58696;52.134;5.500;2022-12-18T06:11:25;102947.34;;;-6.82;89.83
71043;BME280;58696;52.134;5.500;2022-12-18T06:13:53;102942.41;;;-6.86;90.00
71043;BME280;58696;52.134;5.500;2022-12-18T06:16:25;102938.28;;;-6.89;89.75
71043;BME280;58696;52.134;5.500;2022-12-18T06:18:52;102936.63;;;-6.92;89.60
71043;BME280;58696;52.134;5.500;2022-12-18T06:21:19;102928.34;;;-6.97;89.57
71043;BME280;58696;52.134;5.500;2022-12-18T06:23:48;102934.22;;;-6.99;89.62
71043;BME280;58696;52.134;5.500;2022-12-18T06:26:15;102929.28;;;-7.05;89.45
71043;BME280;58696;52.134;5.500;2022-12-18T06:28:42;102921.00;;;-7.09;89.68
71043;BME280;58696;52.134;5.500;2022-12-18T06:31:09;102933.47;;;-7.06;89.65
71043;BME280;58696;52.134;5.500;2022-12-18T06:33:39;102925.09;;;-7.03;89.43
71043;BME280;58696;52.134;5.500;2022-12-18T06:36:07;102920.09;;;-7.03;89.32
71043;BME280;58696;52.134;5.500;2022-12-18T06:38:37;102920.91;;;-7.03;89.24
71043;BME280;58696;52.134;5.500;2022-12-18T06:41:12;102913.44;;;-7.04;89.46
71043;BME280;58696;52.134;5.500;2022-12-18T06:43:41;102912.66;;;-7.08;89.16
71043;BME280;58696;52.134;5.500;2022-12-18T06:46:08;102911.84;;;-7.10;89.51
71043;BME280;58696;52.134;5.500;2022-12-18T06:48:36;102908.53;;;-7.10;89.50
71043;BME280;58696;52.134;5.500;2022-12-18T06:51:03;102908.47;;;-7.07;89.31
71043;BME280;58696;52.134;5.500;2022-12-18T06:53:32;102895.16;;;-7.08;89.23
71043;BME280;58696;52.134;5.500;2022-12-18T06:56:01;102893.56;;;-7.12;89.20
71043;BME280;58696;52.134;5.500;2022-12-18T06:58:35;102889.41;;;-7.11;89.21
71043;BME280;58696;52.134;5.500;2022-12-18T07:01:03;102887.69;;;-7.09;89.11
71043;BME280;58696;52.134;5.500;2022-12-18T07:03:31;102884.31;;;-7.07;89.49
71043;BME280;58696;52.134;5.500;2022-12-18T07:05:59;102880.97;;;-7.04;89.46
71043;BME280;58696;52.134;5.500;2022-12-18T07:08:28;102880.94;;;-7.03;89.42
71043;BME280;58696;52.134;5.500;2022-12-18T07:10:55;102885.88;;;-6.98;89.30
71043;BME280;58696;52.134;5.500;2022-12-18T07:13:22;102882.53;;;-6.97;89.23
71043;BME280;58696;52.134;5.500;2022-12-18T07:15:48;102884.19;;;-6.96;89.21
71043;BME280;58696;52.134;5.500;2022-12-18T07:18:15;102883.31;;;-6.92;89.48
71043;BME280;58696;52.134;5.500;2022-12-18T07:20:42;102870.81;;;-6.92;89.68
71043;BME280;58696;52.134;5.500;2022-12-18T07:23:09;102864.13;;;-6.89;89.12
71043;BME280;58696;52.134;5.500;2022-12-18T07:25:36;102872.41;;;-6.85;89.52
71043;BME280;58696;52.134;5.500;2022-12-18T07:28:04;102875.72;;;-6.86;88.96
71043;BME280;58696;52.134;5.500;2022-12-18T07:30:31;102875.78;;;-6.89;89.00
71043;BME280;58696;52.134;5.500;2022-12-18T07:32:57;102879.97;;;-6.90;89.48
71043;BME280;58696;52.134;5.500;2022-12-18T07:35:25;102864.13;;;-6.89;89.00
71043;BME280;58696;52.134;5.500;2022-12-18T07:37:52;102847.41;;;-6.86;89.04
71043;BME280;58696;52.134;5.500;2022-12-18T07:40:19;102840.72;;;-6.83;89.20
71043;BME280;58696;52.134;5.500;2022-12-18T07:42:46;102840.66;;;-6.78;89.16
71043;BME280;58696;52.134;5.500;2022-12-18T07:45:17;102838.91;;;-6.72;89.33
71043;BME280;58696;52.134;5.500;2022-12-18T07:47:44;102837.16;;;-6.67;89.52
71043;BME280;58696;52.134;5.500;2022-12-18T07:50:13;102828.78;;;-6.63;89.40
71043;BME280;58696;52.134;5.500;2022-12-18T07:52:40;102826.19;;;-6.56;89.43
71043;BME280;58696;52.134;5.500;2022-12-18T07:55:08;102826.97;;;-6.54;89.47
71043;BME280;58696;52.134;5.500;2022-12-18T07:57:34;102815.19;;;-6.46;89.11
71043;BME280;58696;52.134;5.500;2022-12-18T08:00:16;102809.28;;;-6.41;88.98
71043;BME280;58696;52.134;5.500;2022-12-18T08:02:43;102820.00;;;-6.34;89.21
71043;BME280;58696;52.134;5.500;2022-12-18T08:05:14;102813.22;;;-6.27;89.27
71043;BME280;58696;52.134;5.500;2022-12-18T08:07:43;102808.09;;;-6.20;89.41
71043;BME280;58696;52.134;5.500;2022-12-18T08:10:12;102815.34;;;-6.04;89.42
71043;BME280;58696;52.134;5.500;2022-12-18T08:12:41;102799.19;;;-5.90;89.26
71043;BME280;58696;52.134;5.500;2022-12-18T08:15:08;102798.97;;;-5.76;89.42
71043;BME280;58696;52.134;5.500;2022-12-18T08:17:38;102802.00;;;-5.62;89.16
71043;BME280;58696;52.134;5.500;2022-12-18T08:20:06;102792.47;;;-5.44;88.87
71043;BME280;58696;52.134;5.500;2022-12-18T08:22:38;102796.41;;;-5.31;89.08
71043;BME280;58696;52.134;5.500;2022-12-18T08:25:07;102808.41;;;-5.07;88.94
71043;BME280;58696;52.134;5.500;2022-12-18T08:27:34;102804.66;;;-4.87;88.85
71043;BME280;58696;52.134;5.500;2022-12-18T08:30:00;102815.16;;;-4.70;88.69
71043;BME280;58696;52.134;5.500;2022-12-18T08:32:30;102812.44;;;-4.61;88.34
71043;BME280;58696;52.134;5.500;2022-12-18T08:34:59;102822.19;;;-4.48;88.54
71043;BME280;58696;52.134;5.500;2022-12-18T08:37:27;102824.53;;;-4.42;88.61
71043;BME280;58696;52.134;5.500;2022-12-18T08:39:54;102815.28;;;-4.39;88.26
71043;BME280;58696;52.134;5.500;2022-12-18T08:42:21;102825.31;;;-4.39;88.17
71043;BME280;58696;52.134;5.500;2022-12-18T08:45:07;102834.53;;;-4.39;88.17
71043;BME280;58696;52.134;5.500;2022-12-18T08:47:34;102821.94;;;-4.38;88.28
71043;BME280;58696;52.134;5.500;2022-12-18T08:50:00;102817.69;;;-4.36;88.36
71043;BME280;58696;52.134;5.500;2022-12-18T08:52:27;102821.03;;;-4.35;88.33
71043;BME280;58696;52.134;5.500;2022-12-18T08:54:54;102823.44;;;-4.31;88.13
71043;BME280;58696;52.134;5.500;2022-12-18T08:57:21;102825.72;;;-4.21;88.27
71043;BME280;58696;52.134;5.500;2022-12-18T08:59:48;102816.25;;;-4.10;87.93
71043;BME280;58696;52.134;5.500;2022-12-18T09:02:16;102823.28;;;-3.90;87.88
71043;BME280;58696;52.134;5.500;2022-12-18T09:04:46;102823.59;;;-3.72;87.39
71043;BME280;58696;52.134;5.500;2022-12-18T09:07:22;102829.94;;;-3.57;87.14
71043;BME280;58696;52.134;5.500;2022-12-18T09:09:50;102838.22;;;-3.53;86.96
71043;BME280;58696;52.134;5.500;2022-12-18T09:12:21;102827.16;;;-3.48;87.00
71043;BME280;58696;52.134;5.500;2022-12-18T09:14:51;102824.38;;;-3.38;86.44
71043;BME280;58696;52.134;5.500;2022-12-18T09:17:18;102825.91;;;-3.33;86.33
71043;BME280;58696;52.134;5.500;2022-12-18T09:19:45;102815.72;;;-3.28;86.66
71043;BME280;58696;52.134;5.500;2022-12-18T09:22:12;102815.38;;;-3.16;86.19
71043;BME280;58696;52.134;5.500;2022-12-18T09:24:39;102812.00;;;-3.15;86.55
71043;BME280;58696;52.134;5.500;2022-12-18T09:27:06;102812.03;;;-3.17;86.78
71043;BME280;58696;52.134;5.500;2022-12-18T09:29:35;102816.06;;;-3.11;86.47
71043;BME280;58696;52.134;5.500;2022-12-18T09:32:02;102824.53;;;-3.13;86.72
71043;BME280;58696;52.134;5.500;2022-12-18T09:34:29;102818.56;;;-3.11;86.82
71043;BME280;58696;52.134;5.500;2022-12-18T09:36:56;102818.56;;;-3.11;87.00
71043;BME280;58696;52.134;5.500;2022-12-18T09:39:23;102807.81;;;-3.14;86.93
71043;BME280;58696;52.134;5.500;2022-12-18T09:41:57;102794.28;;;-3.12;86.82
71043;BME280;58696;52.134;5.500;2022-12-18T09:44:41;102797.50;;;-3.07;87.02
71043;BME280;58696;52.134;5.500;2022-12-18T09:47:34;102786.50;;;-3.03;86.47
71043;BME280;58696;52.134;5.500;2022-12-18T09:50:17;102785.53;;;-2.99;86.63
71043;BME280;58696;52.134;5.500;2022-12-18T09:52:51;102783.78;;;-2.97;86.50
71043;BME280;58696;52.134;5.500;2022-12-18T09:55:34;102785.38;;;-2.94;86.53
71043;BME280;58696;52.134;5.500;2022-12-18T09:58:15;102787.00;;;-2.92;86.21
71043;BME280;58696;52.134;5.500;2022-12-18T10:00:43;102778.50;;;-2.87;86.31
71043;BME280;58696;52.134;5.500;2022-12-18T10:03:15;102762.47;;;-2.85;86.46
71043;BME280;58696;52.134;5.500;2022-12-18T10:14:34;102763.75;;;-2.72;86.05
71043;BME280;58696;52.134;5.500;2022-12-18T10:19:43;102761.78;;;-2.63;86.02
71043;BME280;58696;52.134;5.500;2022-12-18T10:26:02;102758.16;;;-2.55;85.44
71043;BME280;58696;52.134;5.500;2022-12-18T10:28:30;102747.22;;;-2.54;85.61
71043;BME280;58696;52.134;5.500;2022-12-18T10:30:57;102747.09;;;-2.51;85.37
71043;BME280;58696;52.134;5.500;2022-12-18T10:33:29;102750.44;;;-2.50;85.36
71043;BME280;58696;52.134;5.500;2022-12-18T10:35:59;102750.41;;;-2.49;85.31
71043;BME280;58696;52.134;5.500;2022-12-18T10:38:28;102746.06;;;-2.45;85.37
71043;BME280;58696;52.134;5.500;2022-12-18T10:40:57;102737.69;;;-2.44;85.45
71043;BME280;58696;52.134;5.500;2022-12-18T10:43:28;102729.13;;;-2.40;85.24
71043;BME280;58696;52.134;5.500;2022-12-18T10:46:07;102729.94;;;-2.40;84.95
71043;BME280;58696;52.134;5.500;2022-12-18T10:51:07;102732.28;;;-2.33;85.00
71043;BME280;58696;52.134;5.500;2022-12-18T10:53:40;102734.63;;;-2.29;84.95
71043;BME280;58696;52.134;5.500;2022-12-18T10:56:08;102721.88;;;-2.24;84.91
71043;BME280;58696;52.134;5.500;2022-12-18T10:58:37;102718.44;;;-2.22;84.53
71043;BME280;58696;52.134;5.500;2022-12-18T11:01:09;102717.44;;;-2.18;84.56
71043;BME280;58696;52.134;5.500;2022-12-18T11:03:42;102714.91;;;-2.16;84.36
71043;BME280;58696;52.134;5.500;2022-12-18T11:06:11;102708.09;;;-2.14;84.44
71043;BME280;58696;52.134;5.500;2022-12-18T11:08:39;102710.53;;;-2.11;84.53
71043;BME280;58696;52.134;5.500;2022-12-18T11:11:28;102706.19;;;-2.07;84.31
71043;BME280;58696;52.134;5.500;2022-12-18T11:14:12;102694.38;;;-2.05;84.24
71043;BME280;58696;52.134;5.500;2022-12-18T11:16:44;102685.13;;;-2.05;84.25
71043;BME280;58696;52.134;5.500;2022-12-18T11:19:39;102686.66;;;-2.01;84.18
71043;BME280;58696;52.134;5.500;2022-12-18T11:22:39;102674.75;;;-1.97;83.90
71043;BME280;58696;52.134;5.500;2022-12-18T11:25:18;102675.47;;;-1.94;83.88
71043;BME280;58696;52.134;5.500;2022-12-18T11:28:05;102670.31;;;-1.91;83.78
71043;BME280;58696;52.134;5.500;2022-12-18T11:30:36;102669.34;;;-1.87;83.55
71043;BME280;58696;52.134;5.500;2022-12-18T11:33:13;102661.66;;;-1.83;83.50
71043;BME280;58696;52.134;5.500;2022-12-18T11:35:51;102664.03;;;-1.79;83.35
71043;BME280;58696;52.134;5.500;2022-12-18T11:38:23;102661.44;;;-1.77;83.29
71043;BME280;58696;52.134;5.500;2022-12-18T11:43:50;102665.31;;;-1.69;83.45
71043;BME280;58696;52.134;5.500;2022-12-18T11:46:26;102671.13;;;-1.67;83.16
71043;BME280;58696;52.134;5.500;2022-12-18T11:49:22;102666.84;;;-1.65;82.99
71043;BME280;58696;52.134;5.500;2022-12-18T11:52:00;102657.41;;;-1.60;82.84
71043;BME280;58696;52.134;5.500;2022-12-18T11:54:30;102653.97;;;-1.57;82.93
71043;BME280;58696;52.134;5.500;2022-12-18T11:57:08;102649.59;;;-1.53;82.75
71043;BME280;58696;52.134;5.500;2022-12-18T12:00:03;102649.56;;;-1.52;82.51
71043;BME280;58696;52.134;5.500;2022-12-18T12:16:17;102614.66;;;-1.41;81.61
71043;BME280;58696;52.134;5.500;2022-12-18T12:26:38;102598.41;;;-1.34;81.55
71043;BME280;58696;52.134;5.500;2022-12-18T12:29:20;102595.81;;;-1.32;81.53
71043;BME280;58696;52.134;5.500;2022-12-18T12:34:39;102592.38;;;-1.29;81.51
71043;BME280;58696;52.134;5.500;2022-12-18T12:40:01;102589.66;;;-1.25;81.08
71043;BME280;58696;52.134;5.500;2022-12-18T12:42:58;102587.81;;;-1.21;81.10
71043;BME280;58696;52.134;5.500;2022-12-18T12:45:53;102581.03;;;-1.19;81.15
71043;BME280;58696;52.134;5.500;2022-12-18T12:48:56;102571.75;;;-1.19;81.02
71043;BME280;58696;52.134;5.500;2022-12-18T12:51:30;102569.09;;;-1.16;81.01
71043;BME280;58696;52.134;5.500;2022-12-18T12:54:00;102569.03;;;-1.14;81.10
71043;BME280;58696;52.134;5.500;2022-12-18T12:56:42;102565.56;;;-1.12;80.86
71043;BME280;58696;52.134;5.500;2022-12-18T12:59:25;102558.75;;;-1.10;80.90
71043;BME280;58696;52.134;5.500;2022-12-18T13:02:17;102552.88;;;-1.10;80.71
71043;BME280;58696;52.134;5.500;2022-12-18T13:07:54;102551.88;;;-1.06;80.76
71043;BME280;58696;52.134;5.500;2022-12-18T13:10:35;102555.13;;;-1.04;80.60
71043;BME280;58696;52.134;5.500;2022-12-18T13:13:13;102548.34;;;-1.02;80.34
71043;BME280;58696;52.134;5.500;2022-12-18T13:16:06;102549.25;;;-1.03;80.30
71043;BME280;58696;52.134;5.500;2022-12-18T13:18:35;102553.41;;;-1.02;80.08
71043;BME280;58696;52.134;5.500;2022-12-18T13:21:13;102547.38;;;-0.99;80.08
71043;BME280;58696;52.134;5.500;2022-12-18T13:23:43;102547.38;;;-0.99;80.04
71043;BME280;58696;52.134;5.500;2022-12-18T13:28:56;102554.06;;;-0.98;79.77
71043;BME280;58696;52.134;5.500;2022-12-18T13:36:55;102544.66;;;-0.95;79.82
71043;BME280;58696;52.134;5.500;2022-12-18T13:39:31;102539.50;;;-0.92;79.70
71043;BME280;58696;52.134;5.500;2022-12-18T13:44:35;102531.13;;;-0.92;79.55
71043;BME280;58696;52.134;5.500;2022-12-18T13:47:39;102523.59;;;-0.94;79.33
71043;BME280;58696;52.134;5.500;2022-12-18T13:50:22;102512.69;;;-0.94;79.42
71043;BME280;58696;52.134;5.500;2022-12-18T13:53:04;102506.81;;;-0.95;79.35
71043;BME280;58696;52.134;5.500;2022-12-18T13:55:31;102495.91;;;-0.95;79.57
71043;BME280;58696;52.134;5.500;2022-12-18T13:58:04;102502.66;;;-0.96;79.37
71043;BME280;58696;52.134;5.500;2022-12-18T14:00:34;102506.06;;;-0.97;79.60
71043;BME280;58696;52.134;5.500;2022-12-18T14:03:17;102506.06;;;-0.97;79.40
71043;BME280;58696;52.134;5.500;2022-12-18T14:05:54;102500.13;;;-0.96;79.53
71043;BME280;58696;52.134;5.500;2022-12-18T14:08:29;102499.31;;;-0.96;79.45
71043;BME280;58696;52.134;5.500;2022-12-18T14:10:58;102486.63;;;-0.95;79.30
71043;BME280;58696;52.134;5.500;2022-12-18T14:13:30;102483.28;;;-0.95;78.96
71043;BME280;58696;52.134;5.500;2022-12-18T14:16:00;102484.09;;;-0.95;79.14
71043;BME280;58696;52.134;5.500;2022-12-18T14:21:05;102468.06;;;-0.94;79.30
71043;BME280;58696;52.134;5.500;2022-12-18T14:26:03;102469.66;;;-0.91;78.93
71043;BME280;58696;52.134;5.500;2022-12-18T14:28:48;102462.91;;;-0.91;78.97
71043;BME280;58696;52.134;5.500;2022-12-18T14:31:20;102453.72;;;-0.92;78.97
71043;BME280;58696;52.134;5.500;2022-12-18T14:33:51;102456.97;;;-0.90;78.68
71043;BME280;58696;52.134;5.500;2022-12-18T14:36:25;102448.50;;;-0.89;78.75
71043;BME280;58696;52.134;5.500;2022-12-18T14:38:58;102430.84;;;-0.89;78.60
71043;BME280;58696;52.134;5.500;2022-12-18T14:41:26;102437.53;;;-0.88;78.65
71043;BME280;58696;52.134;5.500;2022-12-18T14:44:05;102442.66;;;-0.89;78.48
71043;BME280;58696;52.134;5.500;2022-12-18T14:46:38;102439.31;;;-0.90;78.54